Terminal Aerodrome Forecast
Issued by NWS Green Bay, WI

Home | Current Version | Previous Version | Text Only | Print | Product List | Glossary Off
Versions: 1 2 3 4 5 6 7 8 9 10 11 12 13 14 15 16 17 18 19 20 21 22 23 24 25 26 27 28 29

000
FTUS43 KGRB 270800 AAA
TAFGRB
TAF AMD
KGRB 270847Z 2709/2806 16003KT 5SM BR SKC
      TEMPO 2710/2713 1SM BR
     FM271500 15005KT P6SM SKC
     FM280400 15005KT 6SM BR SKC=

USA.gov is the U.S. government's official web portal to all federal, state and local government web resources and services.